Aktualne dane pomiarowe

Uwaga, wersja testowa! Automatyczne pobieranie danych za pomocą narzędzi lub skryptów to umożliwiających jest zabronione.

Dane meteo z obszaru Polski uzyskane na podstawie depesz SYNOP pobieranych co godzinę z NWS. Najedź myszką na symbol przedstawiony w tabeli, aby uzyskać informacje co do jego znaczenia. Prosimy pamiętać, że to testowa wersja strony, która jeszcze nie jest ukończona. Stworzono również jest krótki FAQ dotyczący korzystania z tej podstrony Anomalie temperatury w chwili obecnej odniesione są do okresu referencyjnego 1951-2016. Okres ten będzie później zmieniony na 1981-2010. Kliknij ikonę aby pobrać plik CSV. Kliknij ikonę aby wygenerować mapę synoptyczną dla danego terminu.

Wybierz Datę:    

        

Jelenia Góra (12500)

Dane terminowe dla wybranej stacji. Kliknij datę, aby otrzymać dane z tego terminu dla wszystkich stacji.

TemperaturaZachmurzenieWiatrCiśnienieOpadyPogoda
 Data t td wb tx tn tg rh  Nt Nl Cl Cm Ch ws wd g1 g2 wx mslp ppp ch 24h 12h t ww ww w1 w2  
2019-06-19 23:00:00 15.6 14.1 14.5--- 9126.0wx-wxwx1wx---1010.7 970.4 -0.5---------
2019-06-19 22:00:00 17.0 14.5 15.3--- 8550.0wx-wxwx1wx---1010.8 970.7 0.2---------
2019-06-19 21:00:00 18.2 14.5 15.7--- 7950.0wx-wxwx0---01010.5 970.6 0.2---wx-w1--
2019-06-19 20:00:00 19.9 14.0 16.0--- 6950.0wxwxwxwxwx2wx--21010.6 970.9 0.8---------
2019-06-19 19:00:00 20.6 13.8 16.2--- 6550.0wxwxwxwxwx2wx--21010.1 970.5 0.4---wx---
2019-06-19 18:00:00 21.2 13.4 16.2 29.4 19.9- 6150.0wxwxwxwx2wx-1121009.9 970.4 0.6- 0.012wx-w1--
2019-06-19 17:00:00 25.7 11.5 17.2--- 4145.0wxwxwxwx3wx--31009.0 970.1 -0.4---wx-w1--
2019-06-19 16:00:00 27.5 17.9 21.1--- 5640.0wxwxwxwx1wx--11008.7 970.1 -0.9---------
2019-06-19 15:00:00 28.6 13.7 19.3--- 4045.0wxwxwxwx1wx---1008.3 969.8 -1.6---------
2019-06-19 14:00:00 29.3 14.3 19.9--- 4030.0wxwxwxwx2wx--21008.9 970.5 -1.1---------
2019-06-19 13:00:00 29.1 13.7 19.5--- 3927.0wxwxwxwx2wx--21009.5 971.0 -1.0---------
2019-06-19 12:00:00 28.8 12.2 18.7--- 3630.0wxwxwxwx2wx--21009.9 971.4 -1.0- 0.06------
2019-06-19 11:00:00 27.7 14.0 19.1--- 4340.0wxwxwxwx3wx--31010.3 971.6 -1.2---------
2019-06-19 10:00:00 27.6 13.5 18.9--- 4230.0wxwxwxwx2wx--21010.7 972.0 -1.1---------
2019-06-19 09:00:00 27.0 14.1 18.9--- 4530.0wxwxwxwx1wx--11011.2 972.4 -1.0---------
2019-06-19 08:00:00 26.0 15.1 19.0--- 5130.0wxwxwx1wx---1011.7 972.8 -0.8---------
2019-06-19 07:00:00 24.3 16.6 19.2--- 6235.0wxwxwx1wx--11012.3 973.1 -0.5---------
2019-06-19 06:00:00 19.9 16.5 17.5 22.6 12.5 11 8130.0wxwxwx0---01013.2 973.4 -0.4- 0.012----- 14.2
2019-06-19 05:00:00 16.4 15.3 15.6--- 9325.0wxwxwxwxwx1wx--11013.9 973.6 -0.6---------
2019-06-19 04:00:00 13.3 13.1 13.1--- 9925.0wxwxwxwx1wx--11014.3 973.6 -1.0---------
2019-06-19 03:00:00 12.7 12.5 12.5--- 9925.0wxwxwxwx0----1014.6 973.8 -0.8---------
2019-06-19 02:00:00 13.6 13.4 13.4--- 9925.0wxwxwxwx1wx--11014.9 974.2 -0.7---------
2019-06-19 01:00:00 13.3 12.8 12.9--- 9720.0wxwxwxwx0---01015.4 974.6 -0.9---------
2019-06-19 00:00:00 13.5 13.0 13.1--- 9720.0wxwxwxwx1wx--11015.4 974.6 -1.4- 0.06------
2019-06-18 23:00:00 14.3 13.8 13.9--- 9720.0wxwxwxwx1wx--11015.6 974.9 -1.0---------
2019-06-18 22:00:00 15.3 14.3 14.6--- 9420.0wxwxwxwx0----1016.0 975.5 -0.2---------
2019-06-18 21:00:00 17.1 14.6 15.4--- 8535.0wxwxwxwx0---01016.3 976.0 0.6---------
2019-06-18 20:00:00 17.9 14.2 15.4--- 7940.0wxwxwxwx1wx--11016.1 975.9 0.2---------
2019-06-18 19:00:00 20.9 14.5 16.7--- 6750.0wxwxwxwx4wx--41015.5 975.7 -0.1---------
2019-06-18 18:00:00 22.6 14.7 17.5 24.2 15.8- 6135.0wxwxwxwx4wx-1141014.9 975.4 -0.9- 0.012------
2019-06-18 17:00:00 23.6 14.9 18.0--- 5835.0wxwxwxwx3wx---1015.1 975.7 -1.1---------
2019-06-18 16:00:00 24.1 15.0 18.2--- 5735.0wxwxwxwx4wx--41015.1 975.8 -1.5---------
2019-06-18 15:00:00 24.1 15.0 18.2--- 5730.0wxwxwxwx5wx---1015.6 976.3 -1.6---------
2019-06-18 14:00:00 23.9 14.3 17.8--- 5535.0wxwxwxwx5wx--51016.2 976.8 -1.6---------
2019-06-18 13:00:00 23.7 14.7 17.9--- 5730.0wxwxwxwx5wx-1051016.7 977.3 -1.6---------
2019-06-18 12:00:00 23.0 13.5 17.0--- 5535.0wxwxwxwx5wx--51017.5 977.9 -1.6- 0.06------
2019-06-18 11:00:00 23.3 12.9 16.8--- 5235.0wxwxwxwx4wx--41017.9 978.4 -1.3---------
2019-06-18 10:00:00 22.1 13.2 16.5--- 5735.0wxwxwxwxwx4wx--41018.6 978.9 -1.0---------
2019-06-18 09:00:00 21.5 11.8 15.5--- 5435.0wxwxwxwxwx3wx--31019.3 979.5 -0.6---------
2019-06-18 08:00:00 20.7 12.1 15.4--- 5850.0wxwxwxwx4wx--41019.6 979.7 -0.3---------
2019-06-18 07:00:00 19.5 13.0 15.3--- 6635.0wx-wx2wx---1020.0 979.9 0.0---------
2019-06-18 06:00:00 15.8 13.1 14.0 21.7 9.6 8 8430.0wx-wx0---01020.8 980.1 0.2- 0.012----- 12.3
2019-06-18 05:00:00 13.2 12.6 12.7--- 9627.0wx-wx0---01021.0 980.0 0.0---------
2019-06-18 04:00:00 11.0 10.8 10.8--- 9925.0wx-wx0---01021.2 979.9 -0.3---------
2019-06-18 03:00:00 10.6 10.4 10.4--- 9920.0wx-wx0---01021.3 979.9 -0.5---wx---
2019-06-18 02:00:00 9.9 9.7 9.7--- 9920.0wx-wx0----1021.5 980.0 -0.9---wx---
2019-06-18 01:00:00 11.0 10.7 10.7--- 9830.0wx-wx0----1021.6 980.2 -0.6---wx---
2019-06-18 00:00:00 11.6 11.0 11.1--- 9630.0wx-wx0---01021.7 980.4 -0.2- 0.06wx---
1.5 ms

 

Print Friendly, PDF & Email